createdAt,value
2018-09-26T00:01:40.541Z,76.71
2018-09-26T00:04:25.084Z,76.86
2018-09-26T00:07:00.904Z,76.67
2018-09-26T00:09:35.542Z,76.65
2018-09-26T00:12:10.684Z,76.78
2018-09-26T00:14:45.036Z,76.49
2018-09-26T00:17:19.948Z,76.33
2018-09-26T00:19:54.760Z,76.42
2018-09-26T00:22:29.657Z,76.29
2018-09-26T00:25:04.017Z,76.50
2018-09-26T00:27:38.908Z,76.62
2018-09-26T00:30:13.296Z,76.90
2018-09-26T00:32:47.852Z,77.09
2018-09-26T00:35:22.343Z,76.76
2018-09-26T00:37:57.193Z,76.47
2018-09-26T00:40:31.885Z,76.30
2018-09-26T00:43:06.516Z,76.61
2018-09-26T00:45:41.027Z,76.74
2018-09-26T00:48:15.571Z,76.29
2018-09-26T00:50:50.358Z,76.36
2018-09-26T00:53:24.852Z,76.26
2018-09-26T00:55:59.180Z,76.40
2018-09-26T00:58:33.658Z,76.77
2018-09-26T01:01:09.092Z,76.65
2018-09-26T01:03:46.704Z,76.21
2018-09-26T01:06:21.207Z,76.56
2018-09-26T01:08:56.243Z,76.71
2018-09-26T01:11:30.746Z,76.88
2018-09-26T01:14:05.887Z,77.03
2018-09-26T01:16:40.520Z,77.23
2018-09-26T01:19:15.329Z,77.22
2018-09-26T01:21:50.469Z,77.03
2018-09-26T01:24:25.074Z,77.63
2018-09-26T01:26:59.696Z,77.70
2018-09-26T01:29:34.171Z,77.70
2018-09-26T01:32:08.618Z,77.42
2018-09-26T01:34:43.153Z,77.39
2018-09-26T01:37:17.694Z,77.25
2018-09-26T01:39:52.468Z,76.92
2018-09-26T01:42:27.115Z,77.08
2018-09-26T01:45:01.838Z,77.48
2018-09-26T01:47:36.963Z,77.37
2018-09-26T01:50:11.579Z,77.11
2018-09-26T01:52:46.439Z,77.14
2018-09-26T01:55:20.988Z,77.38
2018-09-26T01:57:55.793Z,77.31
2018-09-26T02:00:30.887Z,77.00
2018-09-26T02:03:05.505Z,77.19
2018-09-26T02:05:40.428Z,77.32
2018-09-26T02:08:15.296Z,77.52
2018-09-26T02:10:49.793Z,77.57
2018-09-26T02:13:24.220Z,77.74
2018-09-26T02:15:58.771Z,77.90
2018-09-26T02:18:33.250Z,77.72
2018-09-26T02:21:07.685Z,77.83
2018-09-26T02:23:42.137Z,77.91
2018-09-26T02:26:17.200Z,77.48
2018-09-26T02:28:51.925Z,77.82
2018-09-26T02:31:26.655Z,77.73
2018-09-26T02:34:01.088Z,78.06
2018-09-26T02:36:35.439Z,78.36
2018-09-26T02:39:10.097Z,78.07
2018-09-26T02:41:44.744Z,78.00
2018-09-26T02:44:19.119Z,78.12
2018-09-26T02:46:53.564Z,78.09
2018-09-26T02:49:27.988Z,78.28
2018-09-26T02:52:03.101Z,78.08
2018-09-26T02:54:37.660Z,78.19
2018-09-26T02:57:12.637Z,78.00
2018-09-26T02:59:47.128Z,78.22
2018-09-26T03:02:21.622Z,78.75
2018-09-26T03:04:56.437Z,78.71
2018-09-26T03:07:30.948Z,78.81
2018-09-26T03:10:05.536Z,78.70
2018-09-26T03:12:40.280Z,78.62
2018-09-26T03:15:14.796Z,78.96
2018-09-26T03:17:49.839Z,78.92
2018-09-26T03:20:24.266Z,79.11
2018-09-26T03:22:58.708Z,79.20
2018-09-26T03:25:33.441Z,79.22
2018-09-26T03:28:07.975Z,78.79
2018-09-26T03:30:42.404Z,79.04
2018-09-26T03:33:17.347Z,78.81
2018-09-26T03:35:52.506Z,78.67
2018-09-26T03:38:27.273Z,78.88
2018-09-26T03:41:01.858Z,78.84
2018-09-26T03:43:36.416Z,79.08
2018-09-26T03:46:11.025Z,78.68
2018-09-26T03:48:45.643Z,78.24
2018-09-26T03:51:20.130Z,78.33
2018-09-26T03:53:54.940Z,78.28
2018-09-26T03:56:29.662Z,78.66
2018-09-26T03:59:04.421Z,78.80
2018-09-26T04:01:47.735Z,78.69
2018-09-26T04:04:22.264Z,79.18
2018-09-26T04:07:11.184Z,79.34
2018-09-26T04:09:45.604Z,79.38
2018-09-26T04:12:20.010Z,79.46
2018-09-26T04:14:54.390Z,79.30
2018-09-26T04:17:29.771Z,79.36
2018-09-26T04:20:04.650Z,79.35
2018-09-26T04:22:39.092Z,79.33
2018-09-26T04:25:13.796Z,79.38
2018-09-26T04:27:48.351Z,79.22
2018-09-26T04:30:31.272Z,79.36
2018-09-26T04:33:06.141Z,80.32
2018-09-26T04:35:40.739Z,80.47
2018-09-26T04:38:15.736Z,80.22
2018-09-26T04:40:50.537Z,80.02
2018-09-26T04:43:25.325Z,79.92
2018-09-26T04:46:01.573Z,79.80
2018-09-26T04:48:36.392Z,79.91
2018-09-26T04:51:10.904Z,80.23
2018-09-26T04:53:45.497Z,80.78
2018-09-26T04:56:19.969Z,80.50
2018-09-26T04:58:54.593Z,80.32
2018-09-26T05:01:29.452Z,79.93
2018-09-26T05:04:04.571Z,79.53
2018-09-26T05:06:39.355Z,79.71
2018-09-26T05:09:13.936Z,79.65
2018-09-26T05:11:48.764Z,79.43
2018-09-26T05:14:23.244Z,79.46
2018-09-26T05:16:58.207Z,79.72
2018-09-26T05:19:32.980Z,79.58
2018-09-26T05:22:08.376Z,79.81
2018-09-26T05:24:42.947Z,79.89
2018-09-26T05:27:17.724Z,79.53
2018-09-26T05:29:52.735Z,79.93
2018-09-26T05:32:27.260Z,79.59
2018-09-26T05:35:01.816Z,79.83
2018-09-26T05:37:36.310Z,80.22
2018-09-26T05:40:11.023Z,80.17
2018-09-26T05:42:45.859Z,80.54
2018-09-26T05:45:20.832Z,80.46
2018-09-26T05:47:55.516Z,80.67
2018-09-26T05:50:31.447Z,81.05
2018-09-26T05:53:06.745Z,81.04
2018-09-26T05:55:41.776Z,81.27
2018-09-26T05:58:16.176Z,81.97
2018-09-26T06:00:50.972Z,82.39
2018-09-26T06:03:26.092Z,82.89
2018-09-26T06:06:00.467Z,83.39
2018-09-26T06:08:35.100Z,83.14
2018-09-26T06:11:10.224Z,82.96
2018-09-26T06:13:44.976Z,82.93
2018-09-26T06:16:19.447Z,82.96
2018-09-26T06:18:53.868Z,83.09
2018-09-26T06:21:28.484Z,83.25
2018-09-26T06:24:02.904Z,83.01
2018-09-26T06:26:37.791Z,83.21
2018-09-26T06:29:12.183Z,82.83
2018-09-26T06:31:46.504Z,82.68
2018-09-26T06:34:21.264Z,82.45
2018-09-26T06:36:55.928Z,82.65
2018-09-26T06:39:30.618Z,82.60
2018-09-26T06:42:05.433Z,82.52
2018-09-26T06:44:39.877Z,82.35
2018-09-26T06:47:14.388Z,81.50
2018-09-26T06:49:48.829Z,81.48
2018-09-26T06:52:23.405Z,81.50
2018-09-26T06:54:57.808Z,81.95
2018-09-26T06:57:32.543Z,80.94
2018-09-26T07:00:07.538Z,80.57
2018-09-26T07:02:42.840Z,81.18
2018-09-26T07:05:17.258Z,80.87
2018-09-26T07:07:51.860Z,81.01
2018-09-26T07:10:26.288Z,81.17
2018-09-26T07:13:01.036Z,80.82
2018-09-26T07:15:36.108Z,80.79
2018-09-26T07:18:11.056Z,81.41
2018-09-26T07:20:45.699Z,80.86
2018-09-26T07:23:20.452Z,80.85
2018-09-26T07:25:55.219Z,80.61
2018-09-26T07:28:29.624Z,80.25
2018-09-26T07:31:05.133Z,79.81
2018-09-26T07:33:39.953Z,77.97
2018-09-26T07:36:14.555Z,77.58
2018-09-26T07:38:49.196Z,77.08
2018-09-26T07:41:23.834Z,75.44
2018-09-26T07:43:58.348Z,74.39
2018-09-26T07:46:32.787Z,73.04
2018-09-26T07:49:07.972Z,73.38
2018-09-26T07:51:42.901Z,70.54
2018-09-26T07:54:18.015Z,69.18
2018-09-26T07:56:52.580Z,69.11
2018-09-26T07:59:26.920Z,70.42
2018-09-26T08:02:01.536Z,69.52
2018-09-26T08:04:36.127Z,67.82
2018-09-26T08:07:11.387Z,66.82
2018-09-26T08:09:45.931Z,65.36
2018-09-26T08:12:20.500Z,64.10
2018-09-26T08:14:54.911Z,63.50
2018-09-26T08:17:29.297Z,63.43
2018-09-26T08:20:03.828Z,63.03
2018-09-26T08:22:38.183Z,63.03
2018-09-26T08:25:12.746Z,62.81
2018-09-26T08:27:47.231Z,60.33
2018-09-26T08:30:22.093Z,58.65
2018-09-26T08:32:56.624Z,57.43
2018-09-26T08:35:31.360Z,56.97
2018-09-26T08:38:06.357Z,55.83
2018-09-26T08:40:41.133Z,55.52
2018-09-26T08:43:15.447Z,54.30
2018-09-26T08:45:50.452Z,55.45
2018-09-26T08:48:25.224Z,53.48
2018-09-26T08:50:59.723Z,50.59
2018-09-26T08:53:34.063Z,51.31
2018-09-26T08:56:09.342Z,55.42
2018-09-26T08:58:44.655Z,54.70
2018-09-26T09:01:24.532Z,54.34
2018-09-26T09:03:59.151Z,53.04
2018-09-26T09:06:33.661Z,54.21
2018-09-26T09:09:09.364Z,49.72
2018-09-26T09:11:44.174Z,50.96
2018-09-26T09:14:18.976Z,46.22
2018-09-26T09:16:53.568Z,47.30
2018-09-26T09:19:28.108Z,50.87
2018-09-26T09:22:03.309Z,49.76
2018-09-26T09:24:37.963Z,49.41
2018-09-26T09:27:13.251Z,49.33
2018-09-26T09:29:47.888Z,49.11
2018-09-26T09:32:22.363Z,48.34
2018-09-26T09:34:57.381Z,45.47
2018-09-26T09:37:31.688Z,47.23
2018-09-26T09:40:06.432Z,45.23
2018-09-26T09:42:41.199Z,50.48
2018-09-26T09:45:16.220Z,47.44
2018-09-26T09:47:50.659Z,48.11
2018-09-26T09:50:25.496Z,45.99
2018-09-26T09:53:00.471Z,43.33
2018-09-26T09:55:35.093Z,46.61
2018-09-26T09:58:09.755Z,48.53
2018-09-26T10:00:49.503Z,47.99
2018-09-26T10:03:23.882Z,44.60
2018-09-26T10:05:59.016Z,45.32
2018-09-26T10:08:33.344Z,48.59
2018-09-26T10:11:08.311Z,42.99
2018-09-26T10:13:43.524Z,41.92
2018-09-26T10:16:18.111Z,47.77
2018-09-26T10:18:52.448Z,44.67
2018-09-26T10:21:26.922Z,43.66
2018-09-26T10:24:01.388Z,45.54
2018-09-26T10:26:35.731Z,44.29
2018-09-26T10:29:10.925Z,41.42
2018-09-26T10:31:45.324Z,41.92
2018-09-26T10:34:20.092Z,44.09
2018-09-26T10:36:55.672Z,45.46
2018-09-26T10:39:30.583Z,45.27
2018-09-26T10:42:05.323Z,43.92
2018-09-26T10:44:40.271Z,45.84
2018-09-26T10:47:14.840Z,46.03
2018-09-26T10:49:49.367Z,42.50
2018-09-26T10:52:23.729Z,44.90
2018-09-26T10:54:58.428Z,41.93
2018-09-26T10:57:32.924Z,41.05
2018-09-26T11:00:08.264Z,41.56
2018-09-26T11:02:43.142Z,47.90
2018-09-26T11:05:17.900Z,44.48
2018-09-26T11:07:52.411Z,48.04
2018-09-26T11:10:27.780Z,45.38
2018-09-26T11:13:02.384Z,43.13
2018-09-26T11:15:38.059Z,46.81
2018-09-26T11:18:12.723Z,44.22
2018-09-26T11:20:47.260Z,37.99
2018-09-26T11:23:21.737Z,38.55
2018-09-26T11:25:56.052Z,40.33
2018-09-26T11:28:30.349Z,39.22
2018-09-26T11:31:04.959Z,37.18
2018-09-26T11:33:39.332Z,38.97
2018-09-26T11:36:14.284Z,42.81
2018-09-26T11:38:48.663Z,40.61
2018-09-26T11:41:23.520Z,40.39
2018-09-26T11:43:58.224Z,41.40
2018-09-26T11:46:33.923Z,35.45
2018-09-26T11:49:08.546Z,36.18
2018-09-26T11:51:43.404Z,37.96
2018-09-26T11:54:17.845Z,35.88
2018-09-26T11:56:52.625Z,37.25
2018-09-26T11:59:27.311Z,43.40
2018-09-26T12:02:01.707Z,37.75
2018-09-26T12:04:36.369Z,34.78
2018-09-26T12:07:11.095Z,38.42
2018-09-26T12:09:45.655Z,38.48
2018-09-26T12:12:20.755Z,40.51
2018-09-26T12:14:55.435Z,37.02
2018-09-26T12:17:29.839Z,37.06
2018-09-26T12:20:04.511Z,38.46
2018-09-26T12:22:39.785Z,39.82
2018-09-26T12:25:14.570Z,36.65
2018-09-26T12:27:49.395Z,36.15
2018-09-26T12:30:24.154Z,37.77
2018-09-26T12:32:59.043Z,38.92
2018-09-26T12:35:33.868Z,38.24
2018-09-26T12:38:08.286Z,39.23
2018-09-26T12:40:42.941Z,42.76
2018-09-26T12:43:17.421Z,41.04
2018-09-26T12:45:52.246Z,34.44
2018-09-26T12:48:27.281Z,35.38
2018-09-26T12:51:01.888Z,35.95
2018-09-26T12:53:36.464Z,40.36
2018-09-26T12:56:11.069Z,37.94
2018-09-26T12:58:47.603Z,39.48
2018-09-26T13:01:22.145Z,39.46
2018-09-26T13:03:56.653Z,37.75
2018-09-26T13:06:31.040Z,38.61
2018-09-26T13:09:06.392Z,36.12
2018-09-26T13:11:41.242Z,37.61
2018-09-26T13:14:16.252Z,35.25
2018-09-26T13:16:51.459Z,37.32
2018-09-26T13:19:25.904Z,40.23
2018-09-26T13:22:00.264Z,38.87
2018-09-26T13:24:34.620Z,40.05
2018-09-26T13:27:09.533Z,38.94
2018-09-26T13:29:44.168Z,42.68
2018-09-26T13:32:18.762Z,38.06
2018-09-26T13:34:53.411Z,37.30
2018-09-26T13:37:28.127Z,42.38
2018-09-26T13:40:02.799Z,42.30
2018-09-26T13:42:37.228Z,42.54
2018-09-26T13:45:11.662Z,40.37
2018-09-26T13:47:46.096Z,39.08
2018-09-26T13:50:20.449Z,39.25
2018-09-26T13:53:06.448Z,41.18
2018-09-26T13:55:40.835Z,42.59
2018-09-26T13:58:15.200Z,40.40
2018-09-26T14:00:50.700Z,39.78
2018-09-26T14:03:25.124Z,39.72
2018-09-26T14:05:59.607Z,40.78
2018-09-26T14:08:34.641Z,37.52
2018-09-26T14:11:09.248Z,40.73
2018-09-26T14:13:43.712Z,40.10
2018-09-26T14:16:18.367Z,40.01
2018-09-26T14:18:52.970Z,36.49
2018-09-26T14:21:27.891Z,37.96
2018-09-26T14:24:02.432Z,41.03
2018-09-26T14:26:37.778Z,38.72
2018-09-26T14:29:12.358Z,38.17
2018-09-26T14:31:46.953Z,41.54
2018-09-26T14:34:21.380Z,37.24
2018-09-26T14:36:55.860Z,39.50
2018-09-26T14:39:30.441Z,38.70
2018-09-26T14:42:04.988Z,39.57
2018-09-26T14:44:39.508Z,39.16
2018-09-26T14:47:14.130Z,37.80
2018-09-26T14:49:48.806Z,40.05
2018-09-26T14:52:23.296Z,39.47
2018-09-26T14:54:58.013Z,41.54
2018-09-26T14:57:32.681Z,39.35
2018-09-26T15:00:09.044Z,38.88
2018-09-26T15:02:46.396Z,42.84
2018-09-26T15:05:20.872Z,43.07
2018-09-26T15:07:55.981Z,43.13
2018-09-26T15:10:30.437Z,39.35
2018-09-26T15:13:05.196Z,40.40
2018-09-26T15:15:39.884Z,41.93
2018-09-26T15:18:14.925Z,41.41
2018-09-26T15:20:49.535Z,39.79
2018-09-26T15:23:24.180Z,40.01
2018-09-26T15:25:58.828Z,40.65
2018-09-26T15:28:34.009Z,41.42
2018-09-26T15:31:09.115Z,41.08
2018-09-26T15:33:51.676Z,43.03
2018-09-26T15:36:34.021Z,40.83
2018-09-26T15:39:10.399Z,43.17
2018-09-26T15:41:45.098Z,42.28
2018-09-26T15:44:20.028Z,46.82
2018-09-26T15:46:54.635Z,45.93
2018-09-26T15:49:29.480Z,44.84
2018-09-26T15:52:04.494Z,46.37
2018-09-26T15:54:39.312Z,47.02
2018-09-26T15:57:13.964Z,44.25
2018-09-26T15:59:48.535Z,45.55
2018-09-26T16:02:23.185Z,43.91
2018-09-26T16:04:57.811Z,45.87
2018-09-26T16:07:32.335Z,46.50
2018-09-26T16:10:06.671Z,47.65
2018-09-26T16:12:41.622Z,49.27
2018-09-26T16:15:16.165Z,49.32
2018-09-26T16:17:51.173Z,52.51
2018-09-26T16:20:25.774Z,54.78
2018-09-26T16:23:00.501Z,50.75
2018-09-26T16:25:35.526Z,52.17
2018-09-26T16:28:10.033Z,54.28
2018-09-26T16:30:44.756Z,53.07
2018-09-26T16:33:19.250Z,55.85
2018-09-26T16:35:53.843Z,57.68
2018-09-26T16:38:28.286Z,57.87
2018-09-26T16:41:03.122Z,57.36
2018-09-26T16:43:37.422Z,59.19
2018-09-26T16:46:12.266Z,59.51
2018-09-26T16:48:46.907Z,60.59
2018-09-26T16:51:21.437Z,60.83
2018-09-26T16:53:55.936Z,61.47
2018-09-26T16:59:31.202Z,63.43
2018-09-26T17:02:05.642Z,64.24
2018-09-26T17:04:40.450Z,62.93
2018-09-26T17:07:15.138Z,62.78
2018-09-26T17:09:49.967Z,63.25
2018-09-26T17:12:24.726Z,63.50
2018-09-26T17:14:59.449Z,63.93
2018-09-26T17:17:34.302Z,65.38
2018-09-26T17:20:09.043Z,65.65
2018-09-26T17:22:49.612Z,65.54
2018-09-26T17:25:24.488Z,66.38
2018-09-26T17:27:59.899Z,66.64
2018-09-26T17:30:35.156Z,66.30
2018-09-26T17:33:09.487Z,66.61
2018-09-26T17:35:44.079Z,67.01
2018-09-26T17:38:19.330Z,67.80
2018-09-26T17:40:54.361Z,68.11
2018-09-26T17:43:28.961Z,68.14
2018-09-26T17:46:04.640Z,68.59
2018-09-26T17:48:40.237Z,68.55
2018-09-26T17:51:15.301Z,69.25
2018-09-26T17:53:50.556Z,69.56
2018-09-26T17:56:25.306Z,69.38
2018-09-26T17:59:00.852Z,69.68
2018-09-26T18:01:35.571Z,69.27
2018-09-26T18:04:11.139Z,69.81
2018-09-26T18:06:45.882Z,70.47
2018-09-26T18:09:20.660Z,71.16
2018-09-26T18:11:55.213Z,70.64
2018-09-26T18:14:30.712Z,71.18
2018-09-26T18:17:05.648Z,71.10
2018-09-26T18:19:42.429Z,71.33
2018-09-26T18:22:17.119Z,70.99
2018-09-26T18:24:51.581Z,71.72
2018-09-26T18:27:26.083Z,72.12
2018-09-26T18:30:00.829Z,72.10
2018-09-26T18:32:35.471Z,72.15
2018-09-26T18:35:10.617Z,71.87
2018-09-26T18:37:45.275Z,72.15
2018-09-26T18:40:19.939Z,72.49
2018-09-26T18:42:54.628Z,72.50
2018-09-26T18:45:29.013Z,72.75
2018-09-26T18:48:03.740Z,73.33
2018-09-26T18:50:38.699Z,73.41
2018-09-26T18:53:13.211Z,73.98
2018-09-26T18:55:47.888Z,73.93
2018-09-26T18:58:22.320Z,74.01
2018-09-26T19:00:56.632Z,73.75
2018-09-26T19:03:31.431Z,73.99
2018-09-26T19:06:06.291Z,74.21
2018-09-26T19:08:40.687Z,74.23
2018-09-26T19:11:21.664Z,74.03
2018-09-26T19:13:56.509Z,74.89
2018-09-26T19:16:31.276Z,74.93
2018-09-26T19:19:05.851Z,74.92
2018-09-26T19:21:41.823Z,75.33
2018-09-26T19:24:20.363Z,75.19
2018-09-26T19:26:55.405Z,75.60
2018-09-26T19:29:30.632Z,76.31
2018-09-26T19:32:06.259Z,76.21
2018-09-26T19:34:40.780Z,76.11
2018-09-26T19:37:15.252Z,75.56
2018-09-26T19:39:51.690Z,75.76
2018-09-26T19:42:26.004Z,76.03
2018-09-26T19:45:00.739Z,75.78
2018-09-26T19:47:35.624Z,75.85
2018-09-26T19:50:10.872Z,75.07
2018-09-26T19:52:45.323Z,75.78
2018-09-26T19:55:19.783Z,76.11
2018-09-26T19:57:54.159Z,75.94
2018-09-26T20:00:28.620Z,75.97
2018-09-26T20:03:03.056Z,75.57
2018-09-26T20:05:39.135Z,75.69
2018-09-26T20:08:15.188Z,75.49
2018-09-26T20:10:49.549Z,76.00
2018-09-26T20:13:23.877Z,75.84
2018-09-26T20:15:58.545Z,75.81
2018-09-26T20:18:33.280Z,76.03
2018-09-26T20:21:08.392Z,76.04
2018-09-26T20:23:42.703Z,75.60
2018-09-26T20:26:17.533Z,75.59
2018-09-26T20:28:52.269Z,75.66
2018-09-26T20:31:27.116Z,75.75
2018-09-26T20:34:01.911Z,75.36
2018-09-26T20:36:36.825Z,76.13
2018-09-26T20:39:12.543Z,76.20
2018-09-26T20:41:47.129Z,76.86
2018-09-26T20:44:21.556Z,76.40
2018-09-26T20:46:56.413Z,76.94
2018-09-26T20:49:31.094Z,76.49
2018-09-26T20:52:05.876Z,76.71
2018-09-26T20:54:40.483Z,76.84
2018-09-26T20:57:15.434Z,77.08
2018-09-26T20:59:50.742Z,77.07
2018-09-26T21:02:25.279Z,76.97
2018-09-26T21:04:59.737Z,76.90
2018-09-26T21:07:34.255Z,76.60
2018-09-26T21:10:09.743Z,76.69
2018-09-26T21:12:44.919Z,76.79
2018-09-26T21:15:19.287Z,76.99
2018-09-26T21:17:54.323Z,76.72
2018-09-26T21:20:29.227Z,77.10
2018-09-26T21:23:03.558Z,77.19
2018-09-26T21:25:38.620Z,77.28
2018-09-26T21:28:13.027Z,77.32
2018-09-26T21:30:47.531Z,77.29
2018-09-26T21:33:22.204Z,77.59
2018-09-26T21:35:56.980Z,77.75
2018-09-26T21:38:31.461Z,77.98
2018-09-26T21:41:05.824Z,78.00
2018-09-26T21:43:40.450Z,78.41
2018-09-26T21:46:14.897Z,78.29
2018-09-26T21:48:49.333Z,78.10
2018-09-26T21:51:24.019Z,78.16
2018-09-26T21:53:58.323Z,78.59
2018-09-26T21:56:33.195Z,78.24
2018-09-26T21:59:07.675Z,78.34
2018-09-26T22:01:42.493Z,78.00
2018-09-26T22:04:16.904Z,78.60
2018-09-26T22:06:51.224Z,78.47
2018-09-26T22:09:25.876Z,78.61
2018-09-26T22:12:00.627Z,79.39
2018-09-26T22:14:35.203Z,78.97
2018-09-26T22:17:10.460Z,79.55
2018-09-26T22:19:44.823Z,79.65
2018-09-26T22:22:20.016Z,79.58
2018-09-26T22:24:54.467Z,79.65
2018-09-26T22:27:28.907Z,79.12
2018-09-26T22:30:03.199Z,79.05
2018-09-26T22:32:37.690Z,79.41
2018-09-26T22:35:12.016Z,79.89
2018-09-26T22:37:46.528Z,79.64
2018-09-26T22:40:21.327Z,79.57
2018-09-26T22:42:55.716Z,79.07
2018-09-26T22:45:30.228Z,79.19
2018-09-26T22:48:04.748Z,78.90
2018-09-26T22:50:39.504Z,78.77
2018-09-26T22:53:14.017Z,78.45
2018-09-26T22:55:48.464Z,78.67
2018-09-26T22:58:22.743Z,78.32
2018-09-26T23:00:57.079Z,78.51
2018-09-26T23:03:31.399Z,78.21
2018-09-26T23:06:06.560Z,78.52
2018-09-26T23:08:41.214Z,78.25
2018-09-26T23:11:15.800Z,77.93
2018-09-26T23:13:50.511Z,77.74
2018-09-26T23:16:25.623Z,78.03
2018-09-26T23:19:00.065Z,77.97
2018-09-26T23:21:34.348Z,78.44
2018-09-26T23:24:08.876Z,78.24
2018-09-26T23:26:43.171Z,78.30
2018-09-26T23:29:18.016Z,78.33
2018-09-26T23:31:52.368Z,78.57
2018-09-26T23:34:26.784Z,78.46
2018-09-26T23:37:01.452Z,78.34
2018-09-26T23:39:35.908Z,78.74
2018-09-26T23:42:10.392Z,78.49
2018-09-26T23:44:44.791Z,78.76
2018-09-26T23:47:19.186Z,78.93
2018-09-26T23:49:53.490Z,78.74
2018-09-26T23:52:27.955Z,78.52
2018-09-26T23:55:02.635Z,78.42
2018-09-26T23:57:37.343Z,78.59
